sensor_id;sensor_type;location;lat;lon;timestamp;pressure;altitude;pressure_sealevel;temperature;humidity
22025;BME280;11176;51.448;6.650;2023-05-20T00:01:26;36134.38;;;-141.29;55.90
22025;BME280;11176;51.448;6.650;2023-05-20T00:03:52;36130.41;;;-141.29;55.79
22025;BME280;11176;51.448;6.650;2023-05-20T00:06:19;36150.34;;;-141.29;55.73
22025;BME280;11176;51.448;6.650;2023-05-20T00:08:45;36150.34;;;-141.29;56.22
22025;BME280;11176;51.448;6.650;2023-05-20T00:11:12;36146.34;;;-141.29;56.00
22025;BME280;11176;51.448;6.650;2023-05-20T00:13:39;36134.38;;;-141.29;56.42
22025;BME280;11176;51.448;6.650;2023-05-20T00:16:05;36150.34;;;-141.29;56.86
22025;BME280;11176;51.448;6.650;2023-05-20T00:18:32;36146.34;;;-141.29;57.40
22025;BME280;11176;51.448;6.650;2023-05-20T00:20:59;36128.41;;;-141.29;57.32
22025;BME280;11176;51.448;6.650;2023-05-20T00:23:26;36136.38;;;-141.29;57.95
22025;BME280;11176;51.448;6.650;2023-05-20T00:25:52;36130.41;;;-141.29;58.06
22025;BME280;11176;51.448;6.650;2023-05-20T00:28:19;36162.28;;;-141.29;58.03
22025;BME280;11176;51.448;6.650;2023-05-20T00:30:45;36142.34;;;-141.29;57.91
22025;BME280;11176;51.448;6.650;2023-05-20T00:33:12;36126.41;;;-141.29;57.68
22025;BME280;11176;51.448;6.650;2023-05-20T00:35:38;36146.34;;;-141.29;58.11
22025;BME280;11176;51.448;6.650;2023-05-20T00:38:05;36162.28;;;-141.29;58.25
22025;BME280;11176;51.448;6.650;2023-05-20T00:40:31;36134.38;;;-141.29;58.24
22025;BME280;11176;51.448;6.650;2023-05-20T00:42:58;36134.38;;;-141.29;58.13
22025;BME280;11176;51.448;6.650;2023-05-20T00:45:24;36118.44;;;-141.29;58.42
22025;BME280;11176;51.448;6.650;2023-05-20T00:47:51;36112.47;;;-141.29;58.85
22025;BME280;11176;51.448;6.650;2023-05-20T00:50:18;36152.31;;;-141.29;58.51
22025;BME280;11176;51.448;6.650;2023-05-20T00:52:44;36124.41;;;-141.29;58.88
22025;BME280;11176;51.448;6.650;2023-05-20T00:55:14;36154.31;;;-141.29;59.05
22025;BME280;11176;51.448;6.650;2023-05-20T00:57:40;36154.31;;;-141.29;59.23
22025;BME280;11176;51.448;6.650;2023-05-20T01:00:08;36112.47;;;-141.29;59.10
22025;BME280;11176;51.448;6.650;2023-05-20T01:02:36;36134.38;;;-141.29;59.32
22025;BME280;11176;51.448;6.650;2023-05-20T01:05:03;36166.28;;;-141.29;60.11
22025;BME280;11176;51.448;6.650;2023-05-20T01:07:29;36146.34;;;-141.29;60.36
22025;BME280;11176;51.448;6.650;2023-05-20T01:09:56;36168.25;;;-141.29;61.11
22025;BME280;11176;51.448;6.650;2023-05-20T01:14:56;36122.44;;;-141.29;61.54
22025;BME280;11176;51.448;6.650;2023-05-20T01:17:29;36182.22;;;-141.29;61.91
22025;BME280;11176;51.448;6.650;2023-05-20T01:19:57;36158.31;;;-141.29;62.03
22025;BME280;11176;51.448;6.650;2023-05-20T01:22:26;36152.31;;;-141.29;62.84
22025;BME280;11176;51.448;6.650;2023-05-20T01:24:52;36130.41;;;-141.29;63.31
22025;BME280;11176;51.448;6.650;2023-05-20T01:27:20;36120.44;;;-141.29;63.14
22025;BME280;11176;51.448;6.650;2023-05-20T01:29:51;36122.44;;;-141.29;63.37
22025;BME280;11176;51.448;6.650;2023-05-20T01:32:26;36162.28;;;-141.29;63.53
22025;BME280;11176;51.448;6.650;2023-05-20T01:34:54;36164.28;;;-141.29;64.20
22025;BME280;11176;51.448;6.650;2023-05-20T01:37:22;36190.19;;;-141.29;64.39
22025;BME280;11176;51.448;6.650;2023-05-20T01:39:49;36170.25;;;-141.29;65.22
22025;BME280;11176;51.448;6.650;2023-05-20T01:42:18;36154.31;;;-141.29;64.95
22025;BME280;11176;51.448;6.650;2023-05-20T01:44:46;36150.34;;;-141.29;65.36
22025;BME280;11176;51.448;6.650;2023-05-20T01:47:13;36156.31;;;-141.29;65.43
22025;BME280;11176;51.448;6.650;2023-05-20T01:49:40;36162.28;;;-141.29;65.48
22025;BME280;11176;51.448;6.650;2023-05-20T01:52:07;36170.25;;;-141.29;65.59
22025;BME280;11176;51.448;6.650;2023-05-20T01:54:34;36166.28;;;-141.29;65.76
22025;BME280;11176;51.448;6.650;2023-05-20T01:57:01;36150.34;;;-141.29;66.28
22025;BME280;11176;51.448;6.650;2023-05-20T01:59:28;36170.25;;;-141.29;66.52
22025;BME280;11176;51.448;6.650;2023-05-20T02:01:55;36158.31;;;-141.29;66.97
22025;BME280;11176;51.448;6.650;2023-05-20T02:04:21;36178.22;;;-141.29;67.13
22025;BME280;11176;51.448;6.650;2023-05-20T02:06:48;36168.25;;;-141.29;67.79
22025;BME280;11176;51.448;6.650;2023-05-20T02:09:15;36184.22;;;-141.29;68.13
22025;BME280;11176;51.448;6.650;2023-05-20T02:11:43;36186.19;;;-141.29;68.54
22025;BME280;11176;51.448;6.650;2023-05-20T02:14:10;36184.22;;;-141.29;68.39
22025;BME280;11176;51.448;6.650;2023-05-20T02:16:36;36158.31;;;-141.29;68.79
22025;BME280;11176;51.448;6.650;2023-05-20T02:19:03;36170.25;;;-141.29;68.97
22025;BME280;11176;51.448;6.650;2023-05-20T02:21:29;36194.19;;;-141.29;69.19
22025;BME280;11176;51.448;6.650;2023-05-20T02:23:56;36202.16;;;-141.29;70.20
22025;BME280;11176;51.448;6.650;2023-05-20T02:26:25;36174.25;;;-141.29;70.22
22025;BME280;11176;51.448;6.650;2023-05-20T02:28:51;36198.16;;;-141.29;70.30
22025;BME280;11176;51.448;6.650;2023-05-20T02:31:20;36190.19;;;-141.29;70.55
22025;BME280;11176;51.448;6.650;2023-05-20T02:33:47;36184.22;;;-141.29;70.23
22025;BME280;11176;51.448;6.650;2023-05-20T02:36:13;36202.16;;;-141.29;70.52
22025;BME280;11176;51.448;6.650;2023-05-20T02:38:40;36184.22;;;-141.29;70.69
22025;BME280;11176;51.448;6.650;2023-05-20T02:41:09;36228.06;;;-141.29;70.51
22025;BME280;11176;51.448;6.650;2023-05-20T02:43:36;36176.25;;;-141.29;71.11
22025;BME280;11176;51.448;6.650;2023-05-20T02:46:02;36202.16;;;-141.29;71.41
22025;BME280;11176;51.448;6.650;2023-05-20T02:48:29;36178.22;;;-141.29;71.38
22025;BME280;11176;51.448;6.650;2023-05-20T02:50:56;36186.19;;;-141.29;72.21
22025;BME280;11176;51.448;6.650;2023-05-20T02:53:22;36194.19;;;-141.29;72.49
22025;BME280;11176;51.448;6.650;2023-05-20T02:55:49;36214.09;;;-141.29;73.16
22025;BME280;11176;51.448;6.650;2023-05-20T02:58:16;36236.03;;;-141.29;73.63
22025;BME280;11176;51.448;6.650;2023-05-20T03:00:42;36244.00;;;-141.29;74.46
22025;BME280;11176;51.448;6.650;2023-05-20T03:03:09;36246.00;;;-141.29;74.38
22025;BME280;11176;51.448;6.650;2023-05-20T03:05:36;36220.09;;;-141.29;74.93
22025;BME280;11176;51.448;6.650;2023-05-20T03:08:08;36234.03;;;-141.29;75.17
22025;BME280;11176;51.448;6.650;2023-05-20T03:10:38;36242.00;;;-141.29;75.35
22025;BME280;11176;51.448;6.650;2023-05-20T03:13:06;36244.00;;;-141.29;76.41
22025;BME280;11176;51.448;6.650;2023-05-20T03:15:41;36247.97;;;-141.29;76.25
22025;BME280;11176;51.448;6.650;2023-05-20T03:18:07;36238.03;;;-141.29;76.00
22025;BME280;11176;51.448;6.650;2023-05-20T03:20:35;36236.03;;;-141.29;76.05
22025;BME280;11176;51.448;6.650;2023-05-20T03:23:06;36242.00;;;-141.29;76.01
22025;BME280;11176;51.448;6.650;2023-05-20T03:25:36;36253.97;;;-141.29;76.32
22025;BME280;11176;51.448;6.650;2023-05-20T03:28:03;36238.03;;;-141.29;76.32
22025;BME280;11176;51.448;6.650;2023-05-20T03:30:33;36261.94;;;-141.29;76.63
22025;BME280;11176;51.448;6.650;2023-05-20T03:32:59;36249.97;;;-141.29;76.61
22025;BME280;11176;51.448;6.650;2023-05-20T03:35:28;36236.03;;;-141.29;76.76
22025;BME280;11176;51.448;6.650;2023-05-20T03:37:55;36285.84;;;-141.29;77.25
22025;BME280;11176;51.448;6.650;2023-05-20T03:40:23;36242.00;;;-141.29;77.39
22025;BME280;11176;51.448;6.650;2023-05-20T03:42:49;36273.91;;;-141.29;77.99
22025;BME280;11176;51.448;6.650;2023-05-20T03:45:19;36257.94;;;-141.29;78.78
22025;BME280;11176;51.448;6.650;2023-05-20T03:48:18;36297.81;;;-141.29;78.96
22025;BME280;11176;51.448;6.650;2023-05-20T03:50:46;36253.97;;;-141.29;79.08
22025;BME280;11176;51.448;6.650;2023-05-20T03:53:14;36265.91;;;-141.29;79.01
22025;BME280;11176;51.448;6.650;2023-05-20T03:55:42;36281.88;;;-141.29;79.19
22025;BME280;11176;51.448;6.650;2023-05-20T03:58:12;36257.94;;;-141.29;79.42
22025;BME280;11176;51.448;6.650;2023-05-20T04:00:38;36285.84;;;-141.29;79.15
22025;BME280;11176;51.448;6.650;2023-05-20T04:03:05;36281.88;;;-141.29;79.34
22025;BME280;11176;51.448;6.650;2023-05-20T04:05:34;36269.91;;;-141.29;79.15
22025;BME280;11176;51.448;6.650;2023-05-20T04:08:04;36253.97;;;-141.29;79.04
22025;BME280;11176;51.448;6.650;2023-05-20T04:10:32;36279.88;;;-141.29;79.33
22025;BME280;11176;51.448;6.650;2023-05-20T04:12:59;36301.78;;;-141.29;79.34
22025;BME280;11176;51.448;6.650;2023-05-20T04:15:25;36301.78;;;-141.29;79.36
22025;BME280;11176;51.448;6.650;2023-05-20T04:17:57;36285.84;;;-141.29;78.79
22025;BME280;11176;51.448;6.650;2023-05-20T04:20:24;36301.78;;;-141.29;79.12
22025;BME280;11176;51.448;6.650;2023-05-20T04:22:53;36309.78;;;-141.29;79.49
22025;BME280;11176;51.448;6.650;2023-05-20T04:25:20;36313.75;;;-141.29;79.51
22025;BME280;11176;51.448;6.650;2023-05-20T04:27:47;36305.78;;;-141.29;79.16
22025;BME280;11176;51.448;6.650;2023-05-20T04:30:15;36277.88;;;-141.29;79.31
22025;BME280;11176;51.448;6.650;2023-05-20T04:32:45;36313.75;;;-141.29;79.18
22025;BME280;11176;51.448;6.650;2023-05-20T04:35:13;36307.78;;;-141.29;79.28
22025;BME280;11176;51.448;6.650;2023-05-20T04:37:42;36309.78;;;-141.29;79.25
22025;BME280;11176;51.448;6.650;2023-05-20T04:40:14;36305.78;;;-141.29;79.03
22025;BME280;11176;51.448;6.650;2023-05-20T04:42:41;36325.72;;;-141.29;79.37
22025;BME280;11176;51.448;6.650;2023-05-20T04:45:09;36309.78;;;-141.29;79.53
22025;BME280;11176;51.448;6.650;2023-05-20T04:47:37;36337.66;;;-141.29;79.55
22025;BME280;11176;51.448;6.650;2023-05-20T04:50:06;36341.66;;;-141.29;79.53
22025;BME280;11176;51.448;6.650;2023-05-20T04:52:40;36319.72;;;-141.29;79.60
22025;BME280;11176;51.448;6.650;2023-05-20T04:55:08;36333.69;;;-141.29;80.00
22025;BME280;11176;51.448;6.650;2023-05-20T04:57:36;36353.63;;;-141.29;80.23
22025;BME280;11176;51.448;6.650;2023-05-20T05:00:06;36319.72;;;-141.29;80.38
22025;BME280;11176;51.448;6.650;2023-05-20T05:02:34;36343.66;;;-141.29;80.23
22025;BME280;11176;51.448;6.650;2023-05-20T05:05:02;36365.56;;;-141.29;80.29
22025;BME280;11176;51.448;6.650;2023-05-20T05:07:29;36333.69;;;-141.29;80.37
22025;BME280;11176;51.448;6.650;2023-05-20T05:09:55;36363.56;;;-141.29;80.94
22025;BME280;11176;51.448;6.650;2023-05-20T05:12:22;36359.59;;;-141.29;80.85
22025;BME280;11176;51.448;6.650;2023-05-20T05:14:49;36369.56;;;-141.29;80.69
22025;BME280;11176;51.448;6.650;2023-05-20T05:17:15;36361.59;;;-141.29;80.43
22025;BME280;11176;51.448;6.650;2023-05-20T05:19:43;36377.53;;;-141.29;80.65
22025;BME280;11176;51.448;6.650;2023-05-20T05:22:09;36343.66;;;-141.29;80.40
22025;BME280;11176;51.448;6.650;2023-05-20T05:24:37;36365.56;;;-141.29;80.32
22025;BME280;11176;51.448;6.650;2023-05-20T05:27:04;36363.56;;;-141.29;80.18
22025;BME280;11176;51.448;6.650;2023-05-20T05:29:31;36373.53;;;-141.29;79.83
22025;BME280;11176;51.448;6.650;2023-05-20T05:31:57;36393.47;;;-141.29;79.92
22025;BME280;11176;51.448;6.650;2023-05-20T05:34:24;36383.50;;;-141.29;79.92
22025;BME280;11176;51.448;6.650;2023-05-20T05:36:51;36415.41;;;-141.29;79.66
22025;BME280;11176;51.448;6.650;2023-05-20T05:39:18;36405.44;;;-141.29;80.29
22025;BME280;11176;51.448;6.650;2023-05-20T05:41:45;36395.47;;;-141.29;79.56
22025;BME280;11176;51.448;6.650;2023-05-20T05:44:11;36433.34;;;-141.29;79.87
22025;BME280;11176;51.448;6.650;2023-05-20T05:46:38;36425.38;;;-141.29;79.42
22025;BME280;11176;51.448;6.650;2023-05-20T05:49:05;36427.34;;;-141.29;79.81
22025;BME280;11176;51.448;6.650;2023-05-20T05:51:32;36409.41;;;-141.29;79.46
22025;BME280;11176;51.448;6.650;2023-05-20T05:53:58;36433.34;;;-141.29;79.53
22025;BME280;11176;51.448;6.650;2023-05-20T05:56:25;36453.28;;;-141.29;79.27
22025;BME280;11176;51.448;6.650;2023-05-20T05:58:51;36429.34;;;-141.29;78.94
22025;BME280;11176;51.448;6.650;2023-05-20T06:01:18;36461.25;;;-141.29;79.50
22025;BME280;11176;51.448;6.650;2023-05-20T06:03:45;36455.25;;;-141.29;79.58
22025;BME280;11176;51.448;6.650;2023-05-20T06:06:13;36493.13;;;-141.29;79.62
22025;BME280;11176;51.448;6.650;2023-05-20T06:08:40;36481.16;;;-141.29;79.08
22025;BME280;11176;51.448;6.650;2023-05-20T06:11:09;36493.13;;;-141.29;77.83
22025;BME280;11176;51.448;6.650;2023-05-20T06:13:35;36469.22;;;-141.29;77.49
22025;BME280;11176;51.448;6.650;2023-05-20T06:16:02;36465.22;;;-141.29;77.77
22025;BME280;11176;51.448;6.650;2023-05-20T06:18:28;36513.06;;;-141.29;77.36
22025;BME280;11176;51.448;6.650;2023-05-20T06:20:59;36477.19;;;-141.29;76.06
22025;BME280;11176;51.448;6.650;2023-05-20T06:23:26;36501.09;;;-141.29;76.10
22025;BME280;11176;51.448;6.650;2023-05-20T06:25:59;36501.09;;;-141.29;76.38
22025;BME280;11176;51.448;6.650;2023-05-20T06:28:26;36493.13;;;-141.29;75.64
22025;BME280;11176;51.448;6.650;2023-05-20T06:30:53;36503.09;;;-141.29;74.81
22025;BME280;11176;51.448;6.650;2023-05-20T06:33:24;36495.13;;;-141.29;74.28
22025;BME280;11176;51.448;6.650;2023-05-20T06:35:54;36513.06;;;-141.29;73.78
22025;BME280;11176;51.448;6.650;2023-05-20T06:38:21;36493.13;;;-141.29;72.31
22025;BME280;11176;51.448;6.650;2023-05-20T06:40:49;36479.19;;;-141.29;72.33
22025;BME280;11176;51.448;6.650;2023-05-20T06:43:17;36485.16;;;-141.29;71.69
22025;BME280;11176;51.448;6.650;2023-05-20T06:45:49;36485.16;;;-141.29;71.23
22025;BME280;11176;51.448;6.650;2023-05-20T06:48:24;36465.22;;;-141.29;71.06
22025;BME280;11176;51.448;6.650;2023-05-20T06:50:51;36449.28;;;-141.29;70.80
22025;BME280;11176;51.448;6.650;2023-05-20T06:53:17;36497.13;;;-141.29;70.86
22025;BME280;11176;51.448;6.650;2023-05-20T06:55:44;36475.19;;;-141.29;70.76
22025;BME280;11176;51.448;6.650;2023-05-20T06:58:10;36499.09;;;-141.29;70.51
22025;BME280;11176;51.448;6.650;2023-05-20T07:00:38;36521.03;;;-141.29;70.34
22025;BME280;11176;51.448;6.650;2023-05-20T07:03:05;36509.06;;;-141.29;70.64
22025;BME280;11176;51.448;6.650;2023-05-20T07:05:32;36548.94;;;-141.29;70.61
22025;BME280;11176;51.448;6.650;2023-05-20T07:07:59;36489.16;;;-141.29;70.50
22025;BME280;11176;51.448;6.650;2023-05-20T07:10:26;36533.00;;;-141.29;69.79
22025;BME280;11176;51.448;6.650;2023-05-20T07:12:53;36529.00;;;-141.29;69.16
22025;BME280;11176;51.448;6.650;2023-05-20T07:15:19;36509.06;;;-141.29;68.56
22025;BME280;11176;51.448;6.650;2023-05-20T07:17:47;36503.09;;;-141.29;68.67
22025;BME280;11176;51.448;6.650;2023-05-20T07:20:13;36517.03;;;-141.29;68.13
22025;BME280;11176;51.448;6.650;2023-05-20T07:22:40;36521.03;;;-141.29;67.64
22025;BME280;11176;51.448;6.650;2023-05-20T07:25:19;36525.03;;;-141.29;67.37
22025;BME280;11176;51.448;6.650;2023-05-20T07:27:45;36517.03;;;-141.29;66.51
22025;BME280;11176;51.448;6.650;2023-05-20T07:30:12;36529.00;;;-141.29;66.88
22025;BME280;11176;51.448;6.650;2023-05-20T07:32:42;36552.94;;;-141.29;66.38
22025;BME280;11176;51.448;6.650;2023-05-20T07:35:09;36517.03;;;-141.29;66.50
22025;BME280;11176;51.448;6.650;2023-05-20T07:37:36;36529.00;;;-141.29;66.47
22025;BME280;11176;51.448;6.650;2023-05-20T07:40:03;36525.03;;;-141.29;65.86
22025;BME280;11176;51.448;6.650;2023-05-20T07:42:30;36562.88;;;-141.29;65.67
22025;BME280;11176;51.448;6.650;2023-05-20T07:44:59;36521.03;;;-141.29;65.33
22025;BME280;11176;51.448;6.650;2023-05-20T07:47:26;36548.94;;;-141.29;65.40
22025;BME280;11176;51.448;6.650;2023-05-20T07:49:53;36533.00;;;-141.29;65.13
22025;BME280;11176;51.448;6.650;2023-05-20T07:52:20;36540.97;;;-141.29;65.22
22025;BME280;11176;51.448;6.650;2023-05-20T07:54:47;36546.94;;;-141.29;64.29
22025;BME280;11176;51.448;6.650;2023-05-20T07:57:14;36493.13;;;-141.29;64.05
22025;BME280;11176;51.448;6.650;2023-05-20T07:59:40;36552.94;;;-141.29;64.57
22025;BME280;11176;51.448;6.650;2023-05-20T08:02:07;36584.81;;;-141.29;64.58
22025;BME280;11176;51.448;6.650;2023-05-20T08:04:35;36596.78;;;-141.29;65.15
22025;BME280;11176;51.448;6.650;2023-05-20T08:07:02;36580.81;;;-141.29;64.51
22025;BME280;11176;51.448;6.650;2023-05-20T08:09:43;36588.81;;;-141.29;64.80
22025;BME280;11176;51.448;6.650;2023-05-20T08:12:09;36606.75;;;-141.29;64.10
22025;BME280;11176;51.448;6.650;2023-05-20T08:14:36;36610.72;;;-141.29;63.70
22025;BME280;11176;51.448;6.650;2023-05-20T08:17:03;36610.72;;;-141.29;62.50
22025;BME280;11176;51.448;6.650;2023-05-20T08:19:29;36592.78;;;-141.29;62.30
22025;BME280;11176;51.448;6.650;2023-05-20T08:21:56;36598.75;;;-141.29;62.61
22025;BME280;11176;51.448;6.650;2023-05-20T08:24:23;36644.63;;;-141.29;62.83
22025;BME280;11176;51.448;6.650;2023-05-20T08:26:49;36636.63;;;-141.29;62.68
22025;BME280;11176;51.448;6.650;2023-05-20T08:29:17;36614.72;;;-141.29;62.73
22025;BME280;11176;51.448;6.650;2023-05-20T08:31:44;36660.56;;;-141.29;62.20
22025;BME280;11176;51.448;6.650;2023-05-20T08:34:12;36626.66;;;-141.29;62.36
22025;BME280;11176;51.448;6.650;2023-05-20T08:36:39;36680.50;;;-141.29;62.49
22025;BME280;11176;51.448;6.650;2023-05-20T08:39:05;36656.56;;;-141.29;61.98
22025;BME280;11176;51.448;6.650;2023-05-20T08:41:32;36664.53;;;-141.29;61.28
22025;BME280;11176;51.448;6.650;2023-05-20T08:43:59;36686.47;;;-141.29;63.24
22025;BME280;11176;51.448;6.650;2023-05-20T08:46:29;36720.34;;;-141.29;63.69
22025;BME280;11176;51.448;6.650;2023-05-20T08:48:57;36734.31;;;-141.29;63.98
22025;BME280;11176;51.448;6.650;2023-05-20T08:51:26;36706.41;;;-141.29;63.55
22025;BME280;11176;51.448;6.650;2023-05-20T08:53:53;36736.31;;;-141.29;63.03
22025;BME280;11176;51.448;6.650;2023-05-20T08:56:20;36748.25;;;-141.29;62.77
22025;BME280;11176;51.448;6.650;2023-05-20T08:58:48;36724.34;;;-141.29;61.91
22025;BME280;11176;51.448;6.650;2023-05-20T09:01:16;36740.28;;;-141.29;62.03
22025;BME280;11176;51.448;6.650;2023-05-20T09:03:43;36716.38;;;-141.29;61.97
22025;BME280;11176;51.448;6.650;2023-05-20T09:06:15;36746.25;;;-141.29;61.73
22025;BME280;11176;51.448;6.650;2023-05-20T09:08:42;36736.31;;;-141.29;61.75
22025;BME280;11176;51.448;6.650;2023-05-20T09:11:10;36774.16;;;-141.29;61.38
22025;BME280;11176;51.448;6.650;2023-05-20T09:13:37;36756.22;;;-141.29;61.29
22025;BME280;11176;51.448;6.650;2023-05-20T09:16:04;36772.19;;;-141.29;60.69
22025;BME280;11176;51.448;6.650;2023-05-20T09:18:31;36764.22;;;-141.29;60.86
22025;BME280;11176;51.448;6.650;2023-05-20T09:21:04;36754.25;;;-141.29;60.51
22025;BME280;11176;51.448;6.650;2023-05-20T09:23:35;36764.22;;;-141.29;59.77
22025;BME280;11176;51.448;6.650;2023-05-20T09:26:03;36774.16;;;-141.29;59.92
22025;BME280;11176;51.448;6.650;2023-05-20T09:28:29;36776.16;;;-141.29;59.53
22025;BME280;11176;51.448;6.650;2023-05-20T09:30:59;36756.22;;;-141.29;59.53
22025;BME280;11176;51.448;6.650;2023-05-20T09:33:28;36750.25;;;-141.29;58.00
22025;BME280;11176;51.448;6.650;2023-05-20T09:36:08;36768.19;;;-141.29;57.38
22025;BME280;11176;51.448;6.650;2023-05-20T09:38:37;36760.22;;;-141.29;56.57
22025;BME280;11176;51.448;6.650;2023-05-20T09:41:12;36754.25;;;-141.29;56.36
22025;BME280;11176;51.448;6.650;2023-05-20T09:43:39;36736.31;;;-141.29;55.09
22025;BME280;11176;51.448;6.650;2023-05-20T09:46:06;36746.25;;;-141.29;55.47
22025;BME280;11176;51.448;6.650;2023-05-20T09:48:37;36772.19;;;-141.29;55.72
22025;BME280;11176;51.448;6.650;2023-05-20T09:51:04;36770.19;;;-141.29;55.41
22025;BME280;11176;51.448;6.650;2023-05-20T09:53:32;36748.25;;;-141.29;54.07
22025;BME280;11176;51.448;6.650;2023-05-20T09:55:59;36746.25;;;-141.29;54.01
22025;BME280;11176;51.448;6.650;2023-05-20T09:58:27;36772.19;;;-141.29;54.92
22025;BME280;11176;51.448;6.650;2023-05-20T10:00:54;36792.13;;;-141.29;54.36
22025;BME280;11176;51.448;6.650;2023-05-20T10:03:21;36794.09;;;-141.29;54.29
22025;BME280;11176;51.448;6.650;2023-05-20T10:17:28;36784.13;;;-141.29;51.85
22025;BME280;11176;51.448;6.650;2023-05-20T10:19:57;36810.06;;;-141.29;51.61
22025;BME280;11176;51.448;6.650;2023-05-20T10:22:28;36802.06;;;-141.29;51.59
22025;BME280;11176;51.448;6.650;2023-05-20T10:24:59;36808.06;;;-141.29;51.08
22025;BME280;11176;51.448;6.650;2023-05-20T10:27:29;36804.06;;;-141.29;50.55
22025;BME280;11176;51.448;6.650;2023-05-20T10:29:56;36828.00;;;-141.29;51.05
22025;BME280;11176;51.448;6.650;2023-05-20T10:32:30;36816.03;;;-141.29;50.46
22025;BME280;11176;51.448;6.650;2023-05-20T10:34:59;36814.03;;;-141.29;49.93
22025;BME280;11176;51.448;6.650;2023-05-20T10:37:29;36816.03;;;-141.29;50.26
22025;BME280;11176;51.448;6.650;2023-05-20T10:40:17;36855.91;;;-141.29;50.29
22025;BME280;11176;51.448;6.650;2023-05-20T10:42:44;36831.97;;;-141.29;50.37
22025;BME280;11176;51.448;6.650;2023-05-20T10:45:11;36843.94;;;-141.29;50.06
22025;BME280;11176;51.448;6.650;2023-05-20T10:47:53;36853.91;;;-141.29;50.18
22025;BME280;11176;51.448;6.650;2023-05-20T10:50:35;36875.84;;;-141.29;50.80
22025;BME280;11176;51.448;6.650;2023-05-20T10:53:06;36851.91;;;-141.29;49.52
22025;BME280;11176;51.448;6.650;2023-05-20T10:55:47;36867.84;;;-141.29;50.05
22025;BME280;11176;51.448;6.650;2023-05-20T10:58:17;36865.88;;;-141.29;49.68
22025;BME280;11176;51.448;6.650;2023-05-20T11:00:46;36889.78;;;-141.29;49.58
22025;BME280;11176;51.448;6.650;2023-05-20T11:03:15;36875.84;;;-141.29;48.85
22025;BME280;11176;51.448;6.650;2023-05-20T11:05:44;36857.88;;;-141.29;48.96
22025;BME280;11176;51.448;6.650;2023-05-20T11:08:12;36859.88;;;-141.29;48.79
22025;BME280;11176;51.448;6.650;2023-05-20T11:10:55;36855.91;;;-141.29;49.14
22025;BME280;11176;51.448;6.650;2023-05-20T11:13:22;36871.84;;;-141.29;48.72
22025;BME280;11176;51.448;6.650;2023-05-20T11:15:48;36875.84;;;-141.29;48.17
22025;BME280;11176;51.448;6.650;2023-05-20T11:18:15;36871.84;;;-141.29;48.61
22025;BME280;11176;51.448;6.650;2023-05-20T11:20:45;36899.75;;;-141.29;47.62
22025;BME280;11176;51.448;6.650;2023-05-20T11:23:13;36907.72;;;-141.29;48.57
22025;BME280;11176;51.448;6.650;2023-05-20T11:25:40;36895.75;;;-141.29;47.71
22025;BME280;11176;51.448;6.650;2023-05-20T11:28:13;36909.72;;;-141.29;48.07
22025;BME280;11176;51.448;6.650;2023-05-20T11:30:41;36887.78;;;-141.29;47.14
22025;BME280;11176;51.448;6.650;2023-05-20T11:33:11;36899.75;;;-141.29;47.82
22025;BME280;11176;51.448;6.650;2023-05-20T11:35:46;36903.75;;;-141.29;47.22
22025;BME280;11176;51.448;6.650;2023-05-20T11:38:14;36865.88;;;-141.29;46.52
22025;BME280;11176;51.448;6.650;2023-05-20T11:40:59;36869.84;;;-141.29;46.56
22025;BME280;11176;51.448;6.650;2023-05-20T11:43:25;36867.84;;;-141.29;46.48
22025;BME280;11176;51.448;6.650;2023-05-20T11:45:54;36863.88;;;-141.29;47.09
22025;BME280;11176;51.448;6.650;2023-05-20T11:48:22;36883.81;;;-141.29;47.05
22025;BME280;11176;51.448;6.650;2023-05-20T11:50:49;36877.81;;;-141.29;46.90
22025;BME280;11176;51.448;6.650;2023-05-20T11:53:21;36871.84;;;-141.29;46.87
22025;BME280;11176;51.448;6.650;2023-05-20T11:55:51;36887.78;;;-141.29;47.81
22025;BME280;11176;51.448;6.650;2023-05-20T11:58:23;36879.81;;;-141.29;47.42
22025;BME280;11176;51.448;6.650;2023-05-20T12:00:49;36875.84;;;-141.29;47.50
22025;BME280;11176;51.448;6.650;2023-05-20T12:03:22;36903.75;;;-141.29;47.99
22025;BME280;11176;51.448;6.650;2023-05-20T12:05:49;36891.78;;;-141.29;48.28
22025;BME280;11176;51.448;6.650;2023-05-20T12:08:16;36941.63;;;-141.29;48.58
22025;BME280;11176;51.448;6.650;2023-05-20T12:10:43;36929.66;;;-141.29;47.53
22025;BME280;11176;51.448;6.650;2023-05-20T12:13:10;36915.69;;;-141.29;47.13
22025;BME280;11176;51.448;6.650;2023-05-20T12:15:38;36919.69;;;-141.29;47.15
22025;BME280;11176;51.448;6.650;2023-05-20T12:18:05;36927.66;;;-141.29;47.33
22025;BME280;11176;51.448;6.650;2023-05-20T12:20:32;36941.63;;;-141.29;47.88
22025;BME280;11176;51.448;6.650;2023-05-20T12:23:00;36959.56;;;-141.29;48.28
22025;BME280;11176;51.448;6.650;2023-05-20T12:25:27;36943.59;;;-141.29;46.94
22025;BME280;11176;51.448;6.650;2023-05-20T12:27:54;36939.63;;;-141.29;46.97
22025;BME280;11176;51.448;6.650;2023-05-20T12:30:22;36991.44;;;-141.29;46.53
22025;BME280;11176;51.448;6.650;2023-05-20T12:32:49;36979.50;;;-141.29;46.26
22025;BME280;11176;51.448;6.650;2023-05-20T12:35:24;37013.38;;;-141.29;45.97
22025;BME280;11176;51.448;6.650;2023-05-20T12:37:51;37027.31;;;-141.29;46.88
22025;BME280;11176;51.448;6.650;2023-05-20T12:40:17;36955.56;;;-141.29;46.44
22025;BME280;11176;51.448;6.650;2023-05-20T12:42:44;36989.44;;;-141.29;45.67
22025;BME280;11176;51.448;6.650;2023-05-20T12:45:11;36999.41;;;-141.29;45.03
22025;BME280;11176;51.448;6.650;2023-05-20T12:47:38;37003.41;;;-141.29;45.03
22025;BME280;11176;51.448;6.650;2023-05-20T12:50:05;37035.31;;;-141.29;44.89
22025;BME280;11176;51.448;6.650;2023-05-20T12:52:32;36991.44;;;-141.29;44.80
22025;BME280;11176;51.448;6.650;2023-05-20T12:54:59;37003.41;;;-141.29;44.63
22025;BME280;11176;51.448;6.650;2023-05-20T12:57:25;37017.38;;;-141.29;44.76
22025;BME280;11176;51.448;6.650;2023-05-20T12:59:52;37041.28;;;-141.29;44.25